createdAt,value
2023-03-15T00:00:24.998Z,95.82
2023-03-15T00:02:52.058Z,96.17
2023-03-15T00:05:19.286Z,96.04
2023-03-15T00:07:46.358Z,96.11
2023-03-15T00:10:14.047Z,95.53
2023-03-15T00:12:45.950Z,95.81
2023-03-15T00:15:15.906Z,95.64
2023-03-15T00:17:43.109Z,95.84
2023-03-15T00:20:11.267Z,95.55
2023-03-15T00:22:38.696Z,95.11
2023-03-15T00:25:06.243Z,95.09
2023-03-15T00:27:33.340Z,95.06
2023-03-15T00:30:00.545Z,95.35
2023-03-15T00:32:27.623Z,94.97
2023-03-15T00:34:55.020Z,94.75
2023-03-15T00:37:22.069Z,94.66
2023-03-15T00:39:49.239Z,94.77
2023-03-15T00:42:16.239Z,94.80
2023-03-15T00:44:47.302Z,94.97
2023-03-15T00:47:15.070Z,94.89
2023-03-15T00:49:42.115Z,95.07
2023-03-15T00:52:09.279Z,94.73
2023-03-15T00:54:36.533Z,95.32
2023-03-15T00:57:03.986Z,94.76
2023-03-15T00:59:35.113Z,95.01
2023-03-15T01:02:03.412Z,95.21
2023-03-15T01:04:31.666Z,95.19
2023-03-15T01:06:59.336Z,95.15
2023-03-15T01:09:26.442Z,94.83
2023-03-15T01:11:53.441Z,94.93
2023-03-15T01:14:20.626Z,94.90
2023-03-15T01:16:47.697Z,95.03
2023-03-15T01:19:14.768Z,94.94
2023-03-15T01:21:41.937Z,94.77
2023-03-15T01:24:13.489Z,95.10
2023-03-15T01:26:41.104Z,95.28
2023-03-15T01:29:08.370Z,95.06
2023-03-15T01:31:35.622Z,95.35
2023-03-15T01:34:02.837Z,95.64
2023-03-15T01:36:32.846Z,94.99
2023-03-15T01:38:59.935Z,94.89
2023-03-15T01:41:39.083Z,95.21
2023-03-15T01:44:06.153Z,95.31
2023-03-15T01:46:36.584Z,95.46
2023-03-15T01:49:24.202Z,94.72
2023-03-15T01:52:09.598Z,94.82
2023-03-15T01:55:04.376Z,94.58
2023-03-15T01:57:37.613Z,94.65
2023-03-15T02:00:13.651Z,94.78
2023-03-15T02:02:56.032Z,94.76
2023-03-15T02:05:32.660Z,94.45
2023-03-15T02:08:03.358Z,94.45
2023-03-15T02:10:44.267Z,94.81
2023-03-15T02:13:15.895Z,94.53
2023-03-15T02:15:49.782Z,94.54
2023-03-15T02:18:25.063Z,94.49
2023-03-15T02:21:10.400Z,94.23
2023-03-15T02:23:37.506Z,94.96
2023-03-15T02:26:17.924Z,94.54
2023-03-15T02:28:45.218Z,94.58
2023-03-15T02:31:13.502Z,94.58
2023-03-15T02:33:46.298Z,94.25
2023-03-15T02:36:25.107Z,94.79
2023-03-15T02:38:53.428Z,94.70
2023-03-15T02:41:39.052Z,94.84
2023-03-15T02:44:14.458Z,94.70
2023-03-15T02:46:43.231Z,94.25
2023-03-15T02:49:11.464Z,94.57
2023-03-15T02:51:38.671Z,94.05
2023-03-15T02:54:05.723Z,94.05
2023-03-15T02:56:33.719Z,94.37
2023-03-15T02:59:01.798Z,93.94
2023-03-15T03:01:29.408Z,94.32
2023-03-15T03:03:56.976Z,94.27
2023-03-15T03:06:24.776Z,94.38
2023-03-15T03:08:52.008Z,94.21
2023-03-15T03:11:20.974Z,94.25
2023-03-15T03:13:48.083Z,94.07
2023-03-15T03:16:15.125Z,93.96
2023-03-15T03:18:43.398Z,93.91
2023-03-15T03:21:10.571Z,94.48
2023-03-15T03:23:37.992Z,94.09
2023-03-15T03:26:17.082Z,94.14
2023-03-15T03:28:47.670Z,93.94
2023-03-15T03:31:25.200Z,93.99
2023-03-15T03:33:55.476Z,94.18
2023-03-15T03:36:22.656Z,94.22
2023-03-15T03:38:51.695Z,94.10
2023-03-15T03:41:18.708Z,93.92
2023-03-15T03:43:45.790Z,93.83
2023-03-15T03:46:12.994Z,93.84
2023-03-15T03:48:46.174Z,93.72
2023-03-15T03:51:13.432Z,93.60
2023-03-15T03:53:40.408Z,93.69
2023-03-15T03:56:08.862Z,93.65
2023-03-15T03:58:36.975Z,93.51
2023-03-15T04:01:12.208Z,93.75
2023-03-15T04:03:41.040Z,93.57
2023-03-15T04:06:15.077Z,93.24
2023-03-15T04:08:45.147Z,93.45
2023-03-15T04:11:17.946Z,93.35
2023-03-15T04:13:51.105Z,93.04
2023-03-15T04:16:18.223Z,93.14
2023-03-15T04:18:56.543Z,92.63
2023-03-15T04:21:24.711Z,92.57
2023-03-15T04:23:56.454Z,93.00
2023-03-15T04:26:43.452Z,92.98
2023-03-15T04:29:33.417Z,93.05
2023-03-15T04:32:20.762Z,93.10
2023-03-15T04:35:13.852Z,92.84
2023-03-15T04:38:13.356Z,93.31
2023-03-15T04:40:43.022Z,93.16
2023-03-15T04:43:30.339Z,93.45
2023-03-15T04:46:35.921Z,93.53
2023-03-15T04:49:29.225Z,93.44
2023-03-15T04:52:08.454Z,92.80
2023-03-15T04:54:58.553Z,93.03
2023-03-15T04:57:48.218Z,93.24
2023-03-15T05:00:48.034Z,92.96
2023-03-15T05:03:36.945Z,93.22
2023-03-15T05:06:19.186Z,92.92
2023-03-15T05:08:49.267Z,93.01
2023-03-15T05:11:39.337Z,93.29
2023-03-15T05:14:26.664Z,93.32
2023-03-15T05:17:26.466Z,92.88
2023-03-15T05:37:10.500Z,92.61
2023-03-15T05:39:56.361Z,92.56
2023-03-15T05:42:49.611Z,92.71
2023-03-15T05:45:30.096Z,92.26
2023-03-15T05:48:05.214Z,92.28
2023-03-15T05:50:53.172Z,92.44
2023-03-15T05:53:55.457Z,91.98
2023-03-15T05:56:36.302Z,91.84
2023-03-15T05:59:22.522Z,91.89
2023-03-15T06:02:10.147Z,91.91
2023-03-15T06:04:50.818Z,91.27
2023-03-15T06:07:21.980Z,91.26
2023-03-15T06:09:49.155Z,91.43
2023-03-15T06:12:16.173Z,91.35
2023-03-15T06:14:43.563Z,91.70
2023-03-15T06:17:11.994Z,91.42
2023-03-15T06:19:42.340Z,90.96
2023-03-15T06:22:10.255Z,90.94
2023-03-15T06:24:50.870Z,90.47
2023-03-15T06:27:22.167Z,90.06
2023-03-15T06:29:50.850Z,90.64
2023-03-15T06:32:21.067Z,90.08
2023-03-15T06:34:48.293Z,89.93
2023-03-15T06:37:22.723Z,90.08
2023-03-15T06:39:56.777Z,89.68
2023-03-15T06:42:23.939Z,89.48
2023-03-15T06:44:51.330Z,89.85
2023-03-15T06:47:19.741Z,90.17
2023-03-15T06:49:50.558Z,89.30
2023-03-15T06:52:19.309Z,89.73
2023-03-15T06:54:46.509Z,89.47
2023-03-15T06:57:13.618Z,88.92
2023-03-15T06:59:40.947Z,89.08
2023-03-15T07:02:14.835Z,88.69
2023-03-15T07:04:42.031Z,88.67
2023-03-15T07:07:09.174Z,88.44
2023-03-15T07:09:36.260Z,88.07
2023-03-15T07:12:03.631Z,88.22
2023-03-15T07:14:30.782Z,88.10
2023-03-15T07:16:57.877Z,87.83
2023-03-15T07:19:25.109Z,88.36
2023-03-15T07:21:52.393Z,88.39
2023-03-15T07:24:19.744Z,88.17
2023-03-15T07:26:46.946Z,87.98
2023-03-15T07:29:14.160Z,87.53
2023-03-15T07:31:41.193Z,87.75
2023-03-15T07:34:08.361Z,87.43
2023-03-15T07:36:35.428Z,86.84
2023-03-15T07:39:02.701Z,86.96
2023-03-15T07:41:30.029Z,86.51
2023-03-15T07:44:06.468Z,86.88
2023-03-15T07:46:33.753Z,86.36
2023-03-15T07:49:00.809Z,86.35
2023-03-15T07:51:27.857Z,86.93
2023-03-15T07:53:54.981Z,86.43
2023-03-15T07:56:22.090Z,85.99
2023-03-15T07:58:49.139Z,85.97
2023-03-15T08:01:16.288Z,86.05
2023-03-15T08:03:44.011Z,86.13
2023-03-15T08:06:11.069Z,86.01
2023-03-15T08:08:38.222Z,85.50
2023-03-15T08:11:06.070Z,85.17
2023-03-15T08:13:34.118Z,85.08
2023-03-15T08:16:01.596Z,85.24
2023-03-15T08:18:31.682Z,85.03
2023-03-15T08:20:59.425Z,84.91
2023-03-15T08:23:26.499Z,84.24
2023-03-15T08:25:53.728Z,84.12
2023-03-15T08:28:20.922Z,84.25
2023-03-15T08:30:47.914Z,84.09
2023-03-15T08:33:14.949Z,83.80
2023-03-15T08:35:42.224Z,84.20
2023-03-15T08:38:09.606Z,84.35
2023-03-15T08:40:38.908Z,83.58
2023-03-15T08:43:07.070Z,83.95
2023-03-15T08:45:50.949Z,84.04
2023-03-15T08:48:21.382Z,83.51
2023-03-15T08:50:48.983Z,83.57
2023-03-15T08:53:16.217Z,82.81
2023-03-15T08:55:43.406Z,83.19
2023-03-15T08:58:13.022Z,82.95
2023-03-15T09:00:40.727Z,82.84
2023-03-15T09:03:07.822Z,82.77
2023-03-15T09:05:34.957Z,82.24
2023-03-15T09:08:02.249Z,82.99
2023-03-15T09:10:29.586Z,82.42
2023-03-15T09:12:56.889Z,82.53
2023-03-15T09:15:24.026Z,82.46
2023-03-15T09:17:51.962Z,82.53
2023-03-15T09:20:22.162Z,82.69
2023-03-15T09:22:53.835Z,81.85
2023-03-15T09:25:22.303Z,81.25
2023-03-15T09:27:50.160Z,80.79
2023-03-15T09:30:17.996Z,79.90
2023-03-15T09:32:46.149Z,79.42
2023-03-15T09:35:16.709Z,79.75
2023-03-15T09:37:44.148Z,78.73
2023-03-15T09:40:35.221Z,77.52
2023-03-15T09:43:09.178Z,76.96
2023-03-15T09:45:45.582Z,76.21
2023-03-15T09:48:38.100Z,76.22
2023-03-15T09:51:35.954Z,75.38
2023-03-15T09:54:15.473Z,74.54
2023-03-15T09:57:04.953Z,73.30
2023-03-15T09:59:38.707Z,73.42
2023-03-15T10:02:25.118Z,73.12
2023-03-15T10:05:08.362Z,72.75
2023-03-15T10:07:36.182Z,73.34
2023-03-15T10:10:05.124Z,73.24
2023-03-15T10:12:41.588Z,73.85
2023-03-15T10:15:26.411Z,74.59
2023-03-15T10:17:59.188Z,75.26
2023-03-15T10:20:41.585Z,74.89
2023-03-15T10:23:45.527Z,74.71
2023-03-15T10:26:16.024Z,72.96
2023-03-15T10:28:44.196Z,71.75
2023-03-15T10:31:25.979Z,72.75
2023-03-15T10:33:59.781Z,72.57
2023-03-15T10:36:27.178Z,72.16
2023-03-15T10:38:54.560Z,71.09
2023-03-15T10:41:40.712Z,69.72
2023-03-15T10:44:13.943Z,69.97
2023-03-15T10:46:41.231Z,70.10
2023-03-15T10:49:09.911Z,68.50
2023-03-15T10:51:47.989Z,66.46
2023-03-15T10:54:23.159Z,67.90
2023-03-15T10:57:06.417Z,67.26
2023-03-15T10:59:35.905Z,68.28
2023-03-15T11:02:11.808Z,67.50
2023-03-15T11:04:43.929Z,68.27
2023-03-15T11:07:13.717Z,67.95
2023-03-15T11:09:45.980Z,68.73
2023-03-15T11:12:21.617Z,69.13
2023-03-15T11:14:58.430Z,68.01
2023-03-15T11:17:29.407Z,67.51
2023-03-15T11:19:59.635Z,67.96
2023-03-15T11:22:26.662Z,67.80
2023-03-15T11:24:58.673Z,68.54
2023-03-15T11:27:28.075Z,68.54
2023-03-15T11:29:58.427Z,67.81
2023-03-15T11:32:29.342Z,67.21
2023-03-15T11:35:24.595Z,67.63
2023-03-15T11:37:58.538Z,65.69
2023-03-15T11:40:33.006Z,64.84
2023-03-15T11:43:03.031Z,64.62
2023-03-15T11:45:42.108Z,64.72
2023-03-15T11:48:36.632Z,64.25
2023-03-15T11:51:04.410Z,64.28
2023-03-15T11:53:37.199Z,64.45
2023-03-15T11:56:21.603Z,64.07
2023-03-15T11:59:08.789Z,63.45
2023-03-15T12:01:36.136Z,63.92
2023-03-15T12:04:24.798Z,64.24
2023-03-15T12:06:57.392Z,64.03
2023-03-15T12:09:52.633Z,63.67
2023-03-15T12:12:25.523Z,63.52
2023-03-15T12:15:20.260Z,63.78
2023-03-15T12:17:51.497Z,64.07
2023-03-15T12:20:21.741Z,64.65
2023-03-15T12:22:51.656Z,64.99
2023-03-15T12:25:48.964Z,64.58
2023-03-15T12:28:30.525Z,64.02
2023-03-15T12:31:02.110Z,64.51
2023-03-15T12:33:32.421Z,64.39
2023-03-15T12:36:09.523Z,63.83
2023-03-15T12:38:39.356Z,63.42
2023-03-15T12:41:30.053Z,63.61
2023-03-15T12:44:32.070Z,62.30
2023-03-15T12:47:01.124Z,61.81
2023-03-15T12:49:57.299Z,62.46
2023-03-15T12:52:43.352Z,62.74
2023-03-15T12:55:10.337Z,63.46
2023-03-15T12:57:46.790Z,62.88
2023-03-15T13:00:23.308Z,62.95
2023-03-15T13:03:01.898Z,62.83
2023-03-15T13:05:37.699Z,62.70
2023-03-15T13:08:09.517Z,62.68
2023-03-15T13:10:39.300Z,63.32
2023-03-15T13:13:18.218Z,64.10
2023-03-15T13:16:22.733Z,64.56
2023-03-15T13:19:05.530Z,64.67
2023-03-15T13:21:40.020Z,64.87
2023-03-15T13:24:17.361Z,64.52
2023-03-15T13:26:55.585Z,65.03
2023-03-15T13:29:31.580Z,65.19
2023-03-15T13:32:09.498Z,65.59
2023-03-15T13:34:36.863Z,63.53
2023-03-15T13:37:04.426Z,62.28
2023-03-15T13:39:34.359Z,62.96
2023-03-15T13:42:16.713Z,62.64
2023-03-15T13:44:44.157Z,62.64
2023-03-15T13:47:22.101Z,63.00
2023-03-15T13:49:53.052Z,62.56
2023-03-15T13:52:20.753Z,63.05
2023-03-15T13:54:48.385Z,62.66
2023-03-15T13:57:23.724Z,61.87
2023-03-15T14:00:00.756Z,61.99
2023-03-15T14:02:38.047Z,63.01
2023-03-15T14:05:14.849Z,63.81
2023-03-15T14:07:45.979Z,63.35
2023-03-15T14:10:19.279Z,62.50
2023-03-15T14:12:46.851Z,63.19
2023-03-15T14:15:24.229Z,63.84
2023-03-15T14:18:01.117Z,63.61
2023-03-15T14:20:36.556Z,63.67
2023-03-15T14:23:05.076Z,63.74
2023-03-15T14:25:36.498Z,62.52
2023-03-15T14:28:05.715Z,61.98
2023-03-15T14:30:38.077Z,61.77
2023-03-15T14:33:09.019Z,61.26
2023-03-15T14:35:36.033Z,60.90
2023-03-15T14:38:23.686Z,60.36
2023-03-15T14:40:52.207Z,61.07
2023-03-15T14:43:19.750Z,61.82
2023-03-15T14:45:48.913Z,61.93
2023-03-15T14:48:29.220Z,61.80
2023-03-15T14:50:56.717Z,61.76
2023-03-15T14:53:26.953Z,60.74
2023-03-15T14:55:54.120Z,60.01
2023-03-15T14:58:22.788Z,59.66
2023-03-15T15:00:53.586Z,58.50
2023-03-15T15:03:29.753Z,58.01
2023-03-15T15:05:57.048Z,57.59
2023-03-15T15:08:24.223Z,57.74
2023-03-15T15:10:53.694Z,55.89
2023-03-15T15:13:24.602Z,56.02
2023-03-15T15:15:56.201Z,55.89
2023-03-15T15:18:29.227Z,55.64
2023-03-15T15:20:58.670Z,55.34
2023-03-15T15:23:57.531Z,54.10
2023-03-15T15:26:27.405Z,53.42
2023-03-15T15:28:55.403Z,53.14
2023-03-15T15:31:24.519Z,52.91
2023-03-15T15:33:53.047Z,52.41
2023-03-15T15:36:26.018Z,53.00
2023-03-15T15:38:53.317Z,52.28
2023-03-15T15:41:25.661Z,52.11
2023-03-15T15:43:52.984Z,52.30
2023-03-15T15:46:20.170Z,52.28
2023-03-15T15:48:47.319Z,51.90
2023-03-15T15:51:28.038Z,51.53
2023-03-15T15:53:58.187Z,52.13
2023-03-15T15:56:44.436Z,52.28
2023-03-15T15:59:15.097Z,52.28
2023-03-15T16:01:59.057Z,51.91
2023-03-15T16:04:27.355Z,52.59
2023-03-15T16:07:03.783Z,52.80
2023-03-15T16:09:36.281Z,52.84
2023-03-15T16:12:11.511Z,52.88
2023-03-15T16:14:38.577Z,52.42
2023-03-15T16:17:16.627Z,52.65
2023-03-15T16:19:43.870Z,53.11
2023-03-15T16:22:11.262Z,53.19
2023-03-15T16:24:39.862Z,52.91
2023-03-15T16:27:08.595Z,53.43
2023-03-15T16:29:38.034Z,53.83
2023-03-15T16:32:17.664Z,54.30
2023-03-15T16:34:54.738Z,54.24
2023-03-15T16:37:29.089Z,54.82
2023-03-15T16:39:56.236Z,55.60
2023-03-15T16:42:25.777Z,55.83
2023-03-15T16:44:53.715Z,56.26
2023-03-15T16:47:21.364Z,57.38
2023-03-15T16:49:48.429Z,57.60
2023-03-15T16:52:17.293Z,58.38
2023-03-15T16:54:47.722Z,59.11
2023-03-15T16:57:22.110Z,59.76
2023-03-15T16:59:49.804Z,59.74
2023-03-15T17:02:28.989Z,60.06
2023-03-15T17:04:56.063Z,60.58
2023-03-15T17:07:30.012Z,61.40
2023-03-15T17:09:57.552Z,61.77
2023-03-15T17:12:29.322Z,61.51
2023-03-15T17:14:59.499Z,62.16
2023-03-15T17:17:28.669Z,62.49
2023-03-15T17:19:56.298Z,62.74
2023-03-15T17:22:25.409Z,63.33
2023-03-15T17:24:52.926Z,63.86
2023-03-15T17:27:26.432Z,64.35
2023-03-15T17:29:53.558Z,63.83
2023-03-15T17:32:20.725Z,63.68
2023-03-15T17:34:48.043Z,63.27
2023-03-15T17:37:16.706Z,63.33
2023-03-15T17:39:45.220Z,63.66
2023-03-15T17:42:15.691Z,62.89
2023-03-15T17:44:42.916Z,62.33
2023-03-15T17:47:13.593Z,62.68
2023-03-15T17:49:41.109Z,62.50
2023-03-15T17:52:18.670Z,62.24
2023-03-15T17:54:46.515Z,62.42
2023-03-15T17:57:13.621Z,62.43
2023-03-15T17:59:40.861Z,62.40
2023-03-15T18:02:17.784Z,62.55
2023-03-15T18:04:45.044Z,62.77
2023-03-15T18:07:12.419Z,62.75
2023-03-15T18:09:40.073Z,63.35
2023-03-15T18:12:12.802Z,63.61
2023-03-15T18:14:40.812Z,64.00
2023-03-15T18:17:08.092Z,64.54
2023-03-15T18:19:35.190Z,64.83
2023-03-15T18:22:02.665Z,65.07
2023-03-15T18:24:29.776Z,65.42
2023-03-15T18:26:56.956Z,65.89
2023-03-15T18:29:23.985Z,66.58
2023-03-15T18:31:51.048Z,66.98
2023-03-15T18:34:22.117Z,66.72
2023-03-15T18:36:49.423Z,67.00
2023-03-15T18:39:16.613Z,67.23
2023-03-15T18:41:43.651Z,67.82
2023-03-15T18:44:11.436Z,68.40
2023-03-15T18:46:38.552Z,68.63
2023-03-15T18:49:06.117Z,69.37
2023-03-15T18:51:33.196Z,70.05
2023-03-15T18:54:00.315Z,70.23
2023-03-15T18:56:34.536Z,70.90
2023-03-15T18:59:02.514Z,71.01
2023-03-15T19:01:29.855Z,70.65
2023-03-15T19:03:57.307Z,71.04
2023-03-15T19:06:24.418Z,71.60
2023-03-15T19:08:54.417Z,71.92
2023-03-15T19:11:24.120Z,71.82
2023-03-15T19:13:51.523Z,72.49
2023-03-15T19:16:22.322Z,72.46
2023-03-15T19:18:51.821Z,72.37
2023-03-15T19:21:19.938Z,72.28
2023-03-15T19:23:47.578Z,72.95
2023-03-15T19:26:14.933Z,73.12
2023-03-15T19:28:42.418Z,73.52
2023-03-15T19:31:09.735Z,73.85
2023-03-15T19:33:37.102Z,73.90
2023-03-15T19:36:04.756Z,74.08
2023-03-15T19:38:31.815Z,74.48
2023-03-15T19:41:03.912Z,74.76
2023-03-15T19:43:31.160Z,74.88
2023-03-15T19:45:58.560Z,75.23
2023-03-15T19:48:25.931Z,75.02
2023-03-15T19:50:53.141Z,74.47
2023-03-15T19:53:20.092Z,74.21
2023-03-15T19:55:47.147Z,73.58
2023-03-15T19:58:14.794Z,73.79
2023-03-15T20:00:41.954Z,73.24
2023-03-15T20:03:09.156Z,73.41
2023-03-15T20:05:37.846Z,73.45
2023-03-15T20:08:05.236Z,73.66
2023-03-15T20:10:32.446Z,73.16
2023-03-15T20:12:59.502Z,73.17
2023-03-15T20:15:28.235Z,72.72
2023-03-15T20:17:56.346Z,72.43
2023-03-15T20:20:23.922Z,72.70
2023-03-15T20:22:51.312Z,72.76
2023-03-15T20:25:20.306Z,72.57
2023-03-15T20:27:48.130Z,72.56
2023-03-15T20:30:17.159Z,72.40
2023-03-15T20:32:44.650Z,72.36
2023-03-15T20:35:12.396Z,72.06
2023-03-15T20:37:40.883Z,72.61
2023-03-15T20:40:11.781Z,72.58
2023-03-15T20:42:39.209Z,72.82
2023-03-15T20:45:07.494Z,73.26
2023-03-15T20:47:34.771Z,73.76
2023-03-15T20:50:03.420Z,73.99
2023-03-15T20:52:32.340Z,74.26
2023-03-15T20:54:59.869Z,74.38
2023-03-15T20:57:27.232Z,74.66
2023-03-15T20:59:54.436Z,74.89
2023-03-15T21:02:22.889Z,75.30
2023-03-15T21:04:50.151Z,75.56
2023-03-15T21:07:17.377Z,75.57
2023-03-15T21:09:44.502Z,75.38
2023-03-15T21:12:11.752Z,75.59
2023-03-15T21:14:38.818Z,75.31
2023-03-15T21:17:05.815Z,75.44
2023-03-15T21:19:33.032Z,76.02
2023-03-15T21:22:01.111Z,76.37
2023-03-15T21:24:32.537Z,76.35
2023-03-15T21:27:06.459Z,76.35
2023-03-15T21:29:34.240Z,76.69
2023-03-15T21:32:02.564Z,77.00
2023-03-15T21:34:29.671Z,76.71
2023-03-15T21:36:56.938Z,76.71
2023-03-15T21:39:24.289Z,76.71
2023-03-15T21:41:51.286Z,76.95
2023-03-15T21:44:18.365Z,77.32
2023-03-15T21:46:45.742Z,77.46
2023-03-15T21:49:12.950Z,77.76
2023-03-15T21:51:40.007Z,77.98
2023-03-15T21:54:07.140Z,78.35
2023-03-15T21:56:34.161Z,78.73
2023-03-15T21:59:01.866Z,78.70
2023-03-15T22:01:29.067Z,79.45
2023-03-15T22:03:56.187Z,79.69
2023-03-15T22:06:23.434Z,79.56
2023-03-15T22:08:50.816Z,80.11
2023-03-15T22:11:17.805Z,80.22
2023-03-15T22:13:45.438Z,80.42
2023-03-15T22:16:12.886Z,80.40
2023-03-15T22:18:41.079Z,79.97
2023-03-15T22:21:08.229Z,80.21
2023-03-15T22:23:35.319Z,80.64
2023-03-15T22:26:02.433Z,80.05
2023-03-15T22:28:29.493Z,80.55
2023-03-15T22:30:56.726Z,80.34
2023-03-15T22:33:23.869Z,80.57
2023-03-15T22:35:58.618Z,80.43
2023-03-15T22:38:26.414Z,80.79
2023-03-15T22:41:05.532Z,80.74
2023-03-15T22:43:32.736Z,80.96
2023-03-15T22:46:00.051Z,80.90
2023-03-15T22:48:28.048Z,81.16
2023-03-15T22:51:02.716Z,81.17
2023-03-15T22:53:30.181Z,81.08
2023-03-15T22:55:57.759Z,81.63
2023-03-15T22:58:25.448Z,81.59
2023-03-15T23:00:52.516Z,81.90
2023-03-15T23:03:19.671Z,82.39
2023-03-15T23:05:47.053Z,82.62
2023-03-15T23:08:14.098Z,82.59
2023-03-15T23:10:42.209Z,82.72
2023-03-15T23:13:09.777Z,83.42
2023-03-15T23:15:37.088Z,83.19
2023-03-15T23:18:05.536Z,82.81
2023-03-15T23:20:33.779Z,83.02
2023-03-15T23:23:00.949Z,83.44
2023-03-15T23:25:31.136Z,82.97
2023-03-15T23:27:58.065Z,82.85
2023-03-15T23:30:25.639Z,82.66
2023-03-15T23:32:57.783Z,83.52
2023-03-15T23:35:25.593Z,83.30
2023-03-15T23:37:53.287Z,83.63
2023-03-15T23:40:21.543Z,82.95
2023-03-15T23:42:52.718Z,83.07
2023-03-15T23:45:19.831Z,83.10
2023-03-15T23:47:47.120Z,83.18
2023-03-15T23:50:14.518Z,82.61
2023-03-15T23:52:41.829Z,82.62
2023-03-15T23:55:10.110Z,82.36
2023-03-15T23:57:37.492Z,82.32
